createdAt,value
2019-03-05T00:00:14.827Z,1.60
2019-03-05T00:02:43.819Z,1.87
2019-03-05T00:05:12.787Z,1.80
2019-03-05T00:07:41.797Z,3.10
2019-03-05T00:10:11.547Z,2.33
2019-03-05T00:12:40.459Z,1.70
2019-03-05T00:15:10.725Z,1.27
2019-03-05T00:17:39.697Z,1.67
2019-03-05T00:20:10.707Z,1.50
2019-03-05T00:22:39.763Z,1.70
2019-03-05T00:25:10.996Z,1.40
2019-03-05T00:27:55.082Z,2.13
2019-03-05T00:31:11.520Z,1.10
2019-03-05T00:34:17.058Z,1.97
2019-03-05T00:37:05.607Z,2.60
2019-03-05T00:40:11.782Z,1.67
2019-03-05T00:43:23.974Z,1.70
2019-03-05T00:46:06.875Z,1.97
2019-03-05T00:49:06.852Z,1.40
2019-03-05T00:52:22.854Z,1.00
2019-03-05T00:55:15.103Z,1.60
2019-03-05T00:58:20.782Z,1.20
2019-03-05T01:01:13.536Z,1.23
2019-03-05T01:04:22.000Z,0.60
2019-03-05T01:06:50.955Z,0.70
2019-03-05T01:09:23.239Z,1.00
2019-03-05T01:11:52.430Z,0.70
2019-03-05T01:14:23.268Z,0.90
2019-03-05T01:16:52.298Z,0.60
2019-03-05T01:19:21.258Z,0.90
2019-03-05T01:21:50.156Z,0.50
2019-03-05T01:24:19.711Z,0.70
2019-03-05T01:26:48.612Z,1.03
2019-03-05T01:29:17.417Z,0.50
2019-03-05T01:32:17.291Z,0.50
2019-03-05T01:35:07.645Z,0.50
2019-03-05T01:37:36.647Z,0.70
2019-03-05T01:40:41.145Z,0.73
2019-03-05T01:43:10.146Z,0.50
2019-03-05T01:45:39.056Z,0.70
2019-03-05T01:48:08.282Z,0.70
2019-03-05T01:50:37.381Z,0.80
2019-03-05T01:53:06.282Z,0.70
2019-03-05T01:55:35.373Z,0.50
2019-03-05T01:58:04.325Z,0.60
2019-03-05T02:00:33.482Z,0.70
2019-03-05T02:03:02.446Z,0.70
2019-03-05T02:05:31.926Z,1.40
2019-03-05T02:08:00.863Z,0.80
2019-03-05T02:10:30.221Z,0.60
2019-03-05T02:12:59.196Z,0.70
2019-03-05T02:15:28.088Z,0.60
2019-03-05T02:17:57.020Z,0.70
2019-03-05T02:20:26.306Z,0.90
2019-03-05T02:23:11.415Z,0.70
2019-03-05T02:25:51.623Z,0.93
2019-03-05T02:28:36.860Z,0.70
2019-03-05T02:31:27.665Z,1.13
2019-03-05T02:34:21.043Z,1.83
2019-03-05T02:37:26.191Z,1.10
2019-03-05T02:40:14.318Z,1.30
2019-03-05T02:43:08.324Z,1.90
2019-03-05T02:45:55.041Z,2.20
2019-03-05T02:48:49.037Z,1.70
2019-03-05T02:51:57.662Z,1.50
2019-03-05T02:54:50.351Z,2.10
2019-03-05T02:57:17.839Z,1.63
2019-03-05T02:59:51.251Z,1.17
2019-03-05T03:02:52.090Z,1.10
2019-03-05T03:05:36.226Z,1.30
2019-03-05T03:08:05.319Z,1.97
2019-03-05T03:10:35.042Z,0.97
2019-03-05T03:13:04.219Z,1.00
2019-03-05T03:15:33.233Z,1.23
2019-03-05T03:18:02.090Z,1.53
2019-03-05T03:20:31.099Z,1.17
2019-03-05T03:22:59.954Z,1.60
2019-03-05T03:25:28.954Z,1.77
2019-03-05T03:27:57.797Z,2.73
2019-03-05T03:30:27.777Z,1.17
2019-03-05T03:32:56.747Z,0.90
2019-03-05T03:35:25.726Z,1.00
2019-03-05T03:37:54.709Z,1.77
2019-03-05T03:40:24.396Z,0.80
2019-03-05T03:42:53.939Z,1.00
2019-03-05T03:45:24.277Z,1.27
2019-03-05T03:47:53.556Z,1.20
2019-03-05T03:50:22.508Z,1.67
2019-03-05T03:52:52.036Z,2.90
2019-03-05T03:55:21.233Z,1.10
2019-03-05T03:57:50.482Z,1.90
2019-03-05T04:00:21.279Z,1.60
2019-03-05T04:02:50.753Z,1.60
2019-03-05T04:05:19.974Z,1.33
2019-03-05T04:07:49.088Z,2.10
2019-03-05T04:10:18.179Z,1.80
2019-03-05T04:12:47.156Z,1.23
2019-03-05T04:15:17.922Z,1.20
2019-03-05T04:17:47.148Z,1.40
2019-03-05T04:20:23.895Z,1.07
2019-03-05T04:22:52.862Z,1.73
2019-03-05T04:25:21.681Z,1.73
2019-03-05T04:27:50.694Z,1.17
2019-03-05T04:30:19.605Z,0.90
2019-03-05T04:32:48.917Z,1.20
2019-03-05T04:35:17.759Z,1.20
2019-03-05T04:37:46.575Z,1.97
2019-03-05T04:40:15.564Z,1.10
2019-03-05T04:42:44.463Z,1.50
2019-03-05T04:45:31.555Z,1.67
2019-03-05T04:48:00.443Z,1.20
2019-03-05T04:50:37.100Z,1.13
2019-03-05T04:53:05.999Z,2.13
2019-03-05T04:55:34.837Z,1.70
2019-03-05T04:58:04.100Z,2.10
2019-03-05T05:00:33.369Z,2.17
2019-03-05T05:03:02.345Z,1.60
2019-03-05T05:05:31.260Z,1.77
2019-03-05T05:08:00.131Z,1.30
2019-03-05T05:10:29.079Z,1.22
2019-03-05T05:12:57.923Z,1.40
2019-03-05T05:15:29.090Z,1.27
2019-03-05T05:17:58.256Z,1.10
2019-03-05T05:20:27.302Z,0.90
2019-03-05T05:22:56.383Z,1.40
2019-03-05T05:25:25.762Z,0.97
2019-03-05T05:27:54.729Z,0.60
2019-03-05T05:30:34.732Z,2.33
2019-03-05T05:33:03.995Z,1.20
2019-03-05T05:35:33.119Z,0.80
2019-03-05T05:38:02.119Z,1.10
2019-03-05T05:40:32.933Z,1.62
2019-03-05T05:43:01.882Z,0.87
2019-03-05T05:45:37.203Z,1.43
2019-03-05T05:48:06.197Z,0.70
2019-03-05T05:50:35.023Z,0.90
2019-03-05T05:53:04.779Z,0.80
2019-03-05T05:55:33.710Z,0.67
2019-03-05T05:58:02.651Z,0.80
2019-03-05T06:00:31.936Z,1.10
2019-03-05T06:03:00.872Z,1.23
2019-03-05T06:05:30.443Z,1.00
2019-03-05T06:08:00.467Z,1.10
2019-03-05T06:10:29.492Z,1.00
2019-03-05T06:12:58.935Z,1.17
2019-03-05T06:15:27.880Z,1.10
2019-03-05T06:17:56.955Z,1.10
2019-03-05T06:20:25.763Z,1.90
2019-03-05T06:22:54.753Z,1.00
2019-03-05T06:25:23.751Z,1.27
2019-03-05T06:27:52.552Z,1.20
2019-03-05T06:30:22.152Z,2.70
2019-03-05T06:32:51.069Z,0.70
2019-03-05T06:35:20.063Z,0.80
2019-03-05T06:37:49.625Z,1.17
2019-03-05T06:40:18.537Z,0.67
2019-03-05T06:42:47.608Z,1.13
2019-03-05T06:45:17.109Z,1.23
2019-03-05T06:47:46.091Z,1.10
2019-03-05T06:50:15.234Z,1.30
2019-03-05T06:52:44.216Z,1.47
2019-03-05T06:55:13.710Z,0.97
2019-03-05T06:57:42.795Z,1.10
2019-03-05T07:00:24.338Z,1.17
2019-03-05T07:06:04.118Z,1.10
2019-03-05T07:08:33.359Z,1.50
2019-03-05T07:11:58.825Z,2.80
2019-03-05T07:14:45.035Z,2.50
2019-03-05T07:17:24.847Z,2.87
2019-03-05T07:20:24.774Z,1.90
2019-03-05T07:23:20.862Z,1.63
2019-03-05T07:25:49.772Z,2.17
2019-03-05T07:28:18.701Z,2.50
2019-03-05T07:30:47.620Z,3.33
2019-03-05T07:33:16.557Z,1.60
2019-03-05T07:35:47.111Z,1.27
2019-03-05T07:38:16.462Z,1.07
2019-03-05T07:40:45.441Z,1.80
2019-03-05T07:43:14.342Z,1.20
2019-03-05T07:45:43.267Z,1.77
2019-03-05T07:48:12.086Z,1.10
2019-03-05T07:50:41.031Z,1.07
2019-03-05T07:53:11.198Z,1.20
2019-03-05T07:55:40.146Z,1.27
2019-03-05T07:58:09.154Z,1.23
2019-03-05T08:00:39.669Z,1.10
2019-03-05T08:03:08.947Z,1.00
2019-03-05T08:05:38.279Z,1.13
2019-03-05T08:08:50.956Z,1.60
2019-03-05T08:11:21.295Z,1.63
2019-03-05T08:14:15.073Z,3.30
2019-03-05T08:16:43.928Z,0.90
2019-03-05T08:19:12.835Z,1.10
2019-03-05T08:21:42.083Z,1.17
2019-03-05T08:24:11.125Z,0.80
2019-03-05T08:26:39.953Z,1.33
2019-03-05T08:29:08.862Z,1.30
2019-03-05T08:31:37.991Z,0.97
2019-03-05T08:34:06.979Z,0.70
2019-03-05T08:36:35.987Z,0.80
2019-03-05T08:39:07.269Z,1.10
2019-03-05T08:41:37.020Z,2.73
2019-03-05T08:44:05.955Z,1.03
2019-03-05T08:46:34.871Z,1.60
2019-03-05T08:49:04.015Z,0.87
2019-03-05T08:51:32.912Z,0.70
2019-03-05T08:54:01.961Z,0.77
2019-03-05T08:56:31.570Z,0.93
2019-03-05T08:59:00.559Z,0.73
2019-03-05T09:04:05.389Z,1.30
2019-03-05T09:06:34.381Z,1.10
2019-03-05T09:09:04.623Z,1.40
2019-03-05T09:11:33.904Z,1.37
2019-03-05T09:14:02.874Z,2.17
2019-03-05T09:16:32.465Z,1.23
2019-03-05T09:19:01.414Z,1.50
2019-03-05T09:21:30.251Z,3.30
2019-03-05T09:23:59.101Z,5.20
2019-03-05T09:26:27.956Z,1.80
2019-03-05T09:28:56.878Z,2.00
2019-03-05T09:31:27.698Z,2.50
2019-03-05T09:33:56.566Z,2.90
2019-03-05T09:36:25.455Z,2.83
2019-03-05T09:38:54.491Z,2.70
2019-03-05T09:41:23.517Z,3.43
2019-03-05T09:43:52.409Z,3.17
2019-03-05T09:46:21.355Z,2.93
2019-03-05T09:48:50.211Z,2.93
2019-03-05T09:51:19.161Z,3.20
2019-03-05T09:53:48.356Z,2.67
2019-03-05T09:56:17.711Z,2.10
2019-03-05T09:58:47.182Z,3.07
2019-03-05T10:01:17.408Z,2.97
2019-03-05T10:03:46.611Z,3.73
2019-03-05T10:06:15.680Z,3.90
2019-03-05T10:08:46.520Z,2.60
2019-03-05T10:11:15.507Z,2.40
2019-03-05T10:13:44.417Z,2.20
2019-03-05T10:16:13.394Z,3.87
2019-03-05T10:18:42.592Z,2.77
2019-03-05T10:21:12.521Z,2.37
2019-03-05T10:23:41.825Z,2.80
2019-03-05T10:26:10.782Z,3.63
2019-03-05T10:28:40.320Z,2.50
2019-03-05T10:31:12.496Z,3.23
2019-03-05T10:33:41.335Z,3.80
2019-03-05T10:36:10.667Z,2.53
2019-03-05T10:38:39.544Z,2.37
2019-03-05T10:41:08.520Z,3.20
2019-03-05T10:43:37.359Z,1.73
2019-03-05T10:46:06.752Z,1.80
2019-03-05T10:48:36.120Z,3.80
2019-03-05T10:51:06.783Z,3.27
2019-03-05T10:53:36.067Z,3.00
2019-03-05T10:56:06.403Z,3.07
2019-03-05T10:58:35.541Z,2.67
2019-03-05T11:01:05.968Z,1.93
2019-03-05T11:03:36.871Z,2.53
2019-03-05T11:06:06.786Z,1.80
2019-03-05T11:08:35.648Z,1.80
2019-03-05T11:13:39.350Z,1.80
2019-03-05T11:16:08.816Z,2.23
2019-03-05T11:18:38.643Z,1.90
2019-03-05T11:21:07.687Z,2.07
2019-03-05T11:23:37.762Z,2.30
2019-03-05T11:26:06.711Z,2.20
2019-03-05T11:28:35.606Z,2.57
2019-03-05T11:31:05.784Z,2.80
2019-03-05T11:33:34.747Z,1.30
2019-03-05T11:36:04.101Z,1.87
2019-03-05T11:38:33.098Z,1.90
2019-03-05T11:41:02.271Z,1.97
2019-03-05T11:43:31.183Z,1.97
2019-03-05T11:46:00.207Z,1.30
2019-03-05T11:48:29.048Z,2.13
2019-03-05T11:50:58.017Z,2.60
2019-03-05T11:53:27.024Z,1.77
2019-03-05T11:55:56.235Z,1.33
2019-03-05T11:58:25.424Z,1.50
2019-03-05T12:01:07.267Z,1.93
2019-03-05T12:03:36.535Z,2.63
2019-03-05T12:06:05.520Z,1.27
2019-03-05T12:08:35.144Z,2.10
2019-03-05T12:11:05.476Z,1.73
2019-03-05T12:13:34.720Z,1.43
2019-03-05T12:16:08.138Z,1.93
2019-03-05T12:18:37.932Z,1.63
2019-03-05T12:21:06.911Z,1.40
2019-03-05T12:23:35.913Z,1.33
2019-03-05T12:26:05.139Z,1.20
2019-03-05T12:28:34.044Z,1.57
2019-03-05T12:31:04.626Z,1.00
2019-03-05T12:33:33.610Z,1.47
2019-03-05T12:36:02.611Z,2.43
2019-03-05T12:38:31.727Z,1.80
2019-03-05T12:41:00.735Z,3.20
2019-03-05T12:43:30.075Z,1.20
2019-03-05T12:45:58.967Z,1.83
2019-03-05T12:48:39.266Z,2.00
2019-03-05T12:50:59.833Z,1.20
2019-03-05T12:53:28.933Z,1.10
2019-03-05T12:55:57.949Z,1.03
2019-03-05T12:58:27.080Z,1.37
2019-03-05T13:00:56.055Z,1.37
2019-03-05T13:03:25.019Z,0.90
2019-03-05T13:05:53.909Z,1.20
2019-03-05T13:08:22.938Z,1.10
2019-03-05T13:10:51.847Z,0.83
2019-03-05T13:13:20.784Z,1.30
2019-03-05T13:15:52.885Z,0.90
2019-03-05T13:18:20.391Z,0.80
2019-03-05T13:20:50.427Z,0.67
2019-03-05T13:23:19.339Z,1.00
2019-03-05T13:25:48.273Z,0.73
2019-03-05T13:28:17.262Z,0.70
2019-03-05T13:30:46.523Z,0.90
2019-03-05T13:33:15.824Z,0.83
2019-03-05T13:35:44.756Z,2.80
2019-03-05T13:38:13.750Z,0.67
2019-03-05T13:40:43.117Z,0.70
2019-03-05T13:43:12.139Z,0.90
2019-03-05T13:45:42.327Z,1.27
2019-03-05T13:48:19.752Z,1.27
2019-03-05T13:51:32.247Z,1.40
2019-03-05T13:54:44.007Z,0.90
2019-03-05T13:57:51.445Z,1.07
2019-03-05T14:00:19.768Z,1.20
2019-03-05T14:03:03.907Z,0.83
2019-03-05T14:05:55.211Z,1.30
2019-03-05T14:09:08.752Z,0.70
2019-03-05T14:11:37.525Z,1.20
2019-03-05T14:14:07.723Z,0.90
2019-03-05T14:16:36.690Z,0.83
2019-03-05T14:19:05.776Z,0.90
2019-03-05T14:21:34.741Z,0.93
2019-03-05T14:24:03.849Z,0.97
2019-03-05T14:26:32.946Z,0.97
2019-03-05T14:29:02.219Z,0.70
2019-03-05T14:31:31.948Z,1.00
2019-03-05T14:34:00.956Z,1.07
2019-03-05T14:36:30.099Z,0.70
2019-03-05T14:38:59.875Z,0.70
2019-03-05T14:41:29.600Z,0.80
2019-03-05T14:43:59.331Z,0.90
2019-03-05T14:46:28.892Z,0.70
2019-03-05T14:48:57.936Z,1.00
2019-03-05T14:51:27.052Z,0.90
2019-03-05T14:53:56.000Z,1.47
2019-03-05T14:56:24.807Z,0.80
2019-03-05T14:58:53.990Z,1.03
2019-03-05T15:01:23.291Z,0.77
2019-03-05T15:03:53.754Z,1.10
2019-03-05T15:06:23.006Z,0.93
2019-03-05T15:08:51.876Z,0.80
2019-03-05T15:11:21.279Z,1.33
2019-03-05T15:13:50.236Z,2.20
2019-03-05T15:16:19.310Z,1.27
2019-03-05T15:18:48.392Z,0.70
2019-03-05T15:21:17.433Z,1.00
2019-03-05T15:23:46.635Z,1.20
2019-03-05T15:26:15.602Z,1.00
2019-03-05T15:28:55.817Z,1.20
2019-03-05T15:31:15.409Z,0.80
2019-03-05T15:33:44.836Z,0.90
2019-03-05T15:36:23.324Z,0.80
2019-03-05T15:38:45.034Z,1.23
2019-03-05T15:41:14.752Z,0.80
2019-03-05T15:43:44.343Z,1.10
2019-03-05T15:46:13.392Z,0.77
2019-03-05T15:48:43.798Z,0.80
2019-03-05T15:51:12.851Z,1.10
2019-03-05T15:53:42.475Z,0.70
2019-03-05T15:56:11.642Z,0.97
2019-03-05T15:58:44.139Z,0.90
2019-03-05T16:01:22.018Z,0.90
2019-03-05T16:03:55.263Z,0.80
2019-03-05T16:06:24.401Z,0.70
2019-03-05T16:08:53.683Z,0.70
2019-03-05T16:11:30.209Z,1.23
2019-03-05T16:14:16.555Z,0.80
2019-03-05T16:16:44.590Z,1.10
2019-03-05T16:19:16.589Z,1.10
2019-03-05T16:21:44.226Z,0.83
2019-03-05T16:24:13.276Z,1.27
2019-03-05T16:26:42.260Z,1.53
2019-03-05T16:29:11.692Z,1.27
2019-03-05T16:32:05.751Z,1.17
2019-03-05T16:34:56.720Z,1.30
2019-03-05T16:37:39.214Z,1.37
2019-03-05T16:40:17.503Z,1.33
2019-03-05T16:43:12.171Z,0.90
2019-03-05T16:46:00.277Z,1.10
2019-03-05T16:48:48.698Z,2.03
2019-03-05T16:51:31.943Z,1.33
2019-03-05T16:54:22.931Z,1.33
2019-03-05T16:57:15.826Z,1.40
2019-03-05T17:00:00.457Z,1.47
2019-03-05T17:02:35.726Z,0.67
2019-03-05T17:05:22.975Z,1.93
2019-03-05T17:08:17.471Z,1.77
2019-03-05T17:11:00.622Z,1.77
2019-03-05T17:13:29.681Z,1.00
2019-03-05T17:15:59.582Z,0.90
2019-03-05T17:18:28.552Z,1.30
2019-03-05T17:20:57.531Z,0.93
2019-03-05T17:23:26.653Z,0.70
2019-03-05T17:25:55.755Z,2.43
2019-03-05T17:28:25.770Z,1.03
2019-03-05T17:30:54.746Z,0.97
2019-03-05T17:33:23.858Z,1.10
2019-03-05T17:35:52.979Z,1.03
2019-03-05T17:38:21.851Z,1.70
2019-03-05T17:40:50.971Z,1.27
2019-03-05T17:43:27.138Z,1.20
2019-03-05T17:45:56.287Z,1.27
2019-03-05T17:48:29.839Z,1.80
2019-03-05T17:50:59.068Z,3.33
2019-03-05T17:53:36.601Z,1.33
2019-03-05T17:56:08.587Z,2.20
2019-03-05T17:58:37.594Z,2.87
2019-03-05T18:01:09.423Z,4.23
2019-03-05T18:03:38.651Z,3.20
2019-03-05T18:06:08.375Z,5.40
2019-03-05T18:08:37.770Z,8.30
2019-03-05T18:11:07.580Z,5.20
2019-03-05T18:13:36.567Z,6.73
2019-03-05T18:16:06.036Z,2.83
2019-03-05T18:18:35.039Z,2.00
2019-03-05T18:21:04.746Z,2.70
2019-03-05T18:23:34.455Z,1.67
2019-03-05T18:26:03.449Z,1.90
2019-03-05T18:28:32.955Z,1.03
2019-03-05T18:31:01.952Z,0.87
2019-03-05T18:33:31.154Z,1.70
2019-03-05T18:36:00.161Z,1.27
2019-03-05T18:38:29.318Z,1.57
2019-03-05T18:40:58.764Z,1.90
2019-03-05T18:43:27.880Z,1.60
2019-03-05T18:45:56.780Z,2.90
2019-03-05T18:48:26.221Z,1.30
2019-03-05T18:50:55.262Z,2.17
2019-03-05T18:53:24.718Z,2.20
2019-03-05T18:55:55.294Z,2.20
2019-03-05T18:58:24.305Z,1.73
2019-03-05T19:00:53.442Z,1.20
2019-03-05T19:03:22.774Z,1.87
2019-03-05T19:05:51.936Z,1.27
2019-03-05T19:08:21.120Z,3.17
2019-03-05T19:10:50.240Z,2.00
2019-03-05T19:13:19.304Z,2.50
2019-03-05T19:15:48.722Z,1.90
2019-03-05T19:18:17.675Z,1.60
2019-03-05T19:20:46.804Z,3.00
2019-03-05T19:23:16.034Z,7.43
2019-03-05T19:25:45.274Z,3.00
2019-03-05T19:28:18.011Z,2.00
2019-03-05T19:30:47.464Z,2.60
2019-03-05T19:33:16.950Z,1.97
2019-03-05T19:35:46.178Z,1.20
2019-03-05T19:38:15.506Z,1.33
2019-03-05T19:40:45.254Z,1.67
2019-03-05T19:43:14.319Z,1.70
2019-03-05T19:45:43.612Z,2.10
2019-03-05T19:48:12.591Z,1.97
2019-03-05T19:50:42.519Z,2.23
2019-03-05T19:53:12.338Z,2.60
2019-03-05T19:55:41.179Z,1.20
2019-03-05T19:58:11.333Z,1.40
2019-03-05T20:00:58.351Z,1.47
2019-03-05T20:03:27.978Z,1.67
2019-03-05T20:05:57.051Z,3.23
2019-03-05T20:08:26.422Z,2.10
2019-03-05T20:10:55.485Z,2.23
2019-03-05T20:13:24.385Z,2.57
2019-03-05T20:15:53.648Z,3.00
2019-03-05T20:18:23.208Z,1.77
2019-03-05T20:20:52.360Z,4.87
2019-03-05T20:23:21.758Z,1.60
2019-03-05T20:25:50.982Z,1.73
2019-03-05T20:28:20.311Z,1.67
2019-03-05T20:30:49.926Z,1.90
2019-03-05T20:33:19.475Z,1.80
2019-03-05T20:35:48.920Z,1.90
2019-03-05T20:38:18.269Z,2.00
2019-03-05T20:40:47.467Z,2.67
2019-03-05T20:43:16.553Z,2.47
2019-03-05T20:45:45.975Z,1.50
2019-03-05T20:48:15.710Z,1.90
2019-03-05T20:50:44.556Z,2.00
2019-03-05T20:53:13.470Z,1.83
2019-03-05T20:55:42.714Z,1.60
2019-03-05T20:58:11.746Z,3.60
2019-03-05T21:00:41.407Z,2.60
2019-03-05T21:03:10.573Z,3.03
2019-03-05T21:05:41.239Z,3.47
2019-03-05T21:08:10.580Z,2.27
2019-03-05T21:10:39.699Z,2.70
2019-03-05T21:13:09.267Z,2.83
2019-03-05T21:15:38.600Z,2.43
2019-03-05T21:18:08.027Z,2.13
2019-03-05T21:20:39.134Z,2.10
2019-03-05T21:23:08.544Z,1.50
2019-03-05T21:25:37.531Z,1.83
2019-03-05T21:28:06.652Z,2.60
2019-03-05T21:30:35.653Z,2.60
2019-03-05T21:33:04.815Z,2.60
2019-03-05T21:35:33.794Z,2.40
2019-03-05T21:38:02.878Z,1.80
2019-03-05T21:40:31.809Z,2.10
2019-03-05T21:43:00.847Z,2.00
2019-03-05T21:45:32.539Z,2.03
2019-03-05T21:48:02.108Z,1.87
2019-03-05T21:50:30.914Z,1.90
2019-03-05T21:53:00.319Z,1.50
2019-03-05T21:55:29.313Z,2.20
2019-03-05T21:57:58.390Z,1.50
2019-03-05T22:00:29.010Z,2.03
2019-03-05T22:02:58.987Z,2.03
2019-03-05T22:05:28.286Z,2.67
2019-03-05T22:07:57.481Z,1.67
2019-03-05T22:10:26.620Z,2.00
2019-03-05T22:12:55.567Z,2.47
2019-03-05T22:15:24.741Z,2.10
2019-03-05T22:17:53.879Z,2.23
2019-03-05T22:20:23.622Z,1.90
2019-03-05T22:22:52.899Z,2.20
2019-03-05T22:25:21.942Z,2.30
2019-03-05T22:27:51.225Z,2.40
2019-03-05T22:30:22.604Z,1.93
2019-03-05T22:32:51.903Z,2.40
2019-03-05T22:35:20.926Z,2.20
2019-03-05T22:37:49.811Z,1.70
2019-03-05T22:40:18.829Z,1.90
2019-03-05T22:42:47.808Z,2.40
2019-03-05T22:45:18.939Z,1.70
2019-03-05T22:47:49.622Z,1.43
2019-03-05T22:50:19.124Z,1.63
2019-03-05T22:52:48.088Z,2.30
2019-03-05T22:55:18.529Z,3.07
2019-03-05T22:57:47.705Z,2.07
2019-03-05T23:00:50.051Z,5.00
2019-03-05T23:03:20.633Z,2.47
2019-03-05T23:05:49.854Z,2.70
2019-03-05T23:08:20.840Z,2.93
2019-03-05T23:10:50.036Z,2.93
2019-03-05T23:13:19.366Z,2.93
2019-03-05T23:15:48.897Z,2.50
2019-03-05T23:18:18.506Z,2.27
2019-03-05T23:20:47.443Z,2.77
2019-03-05T23:23:16.513Z,2.80
2019-03-05T23:25:45.530Z,3.43
2019-03-05T23:28:14.822Z,2.43
2019-03-05T23:30:43.815Z,2.70
2019-03-05T23:33:13.214Z,2.83
2019-03-05T23:35:42.285Z,2.57
2019-03-05T23:38:11.250Z,2.77
2019-03-05T23:40:40.317Z,2.60
2019-03-05T23:43:09.393Z,3.10
2019-03-05T23:45:38.316Z,3.40
2019-03-05T23:48:07.434Z,3.50
2019-03-05T23:50:36.451Z,2.53
2019-03-05T23:53:05.447Z,3.50
2019-03-05T23:55:34.415Z,3.90
2019-03-05T23:58:03.352Z,3.87
